sensor_id;sensor_type;location;lat;lon;timestamp;P1;durP1;ratioP1;P2;durP2;ratioP2
5491;SDS011;2768;53.540;10.224;2022-07-21T00:04:05;14.87;;;10.53;;
5491;SDS011;2768;53.540;10.224;2022-07-21T00:09:58;12.30;;;11.00;;
5491;SDS011;2768;53.540;10.224;2022-07-21T00:15:52;11.30;;;10.10;;
5491;SDS011;2768;53.540;10.224;2022-07-21T00:21:45;14.90;;;10.13;;
5491;SDS011;2768;53.540;10.224;2022-07-21T00:27:38;12.07;;;9.80;;
5491;SDS011;2768;53.540;10.224;2022-07-21T00:33:33;12.90;;;9.23;;
5491;SDS011;2768;53.540;10.224;2022-07-21T00:39:26;12.40;;;9.60;;
5491;SDS011;2768;53.540;10.224;2022-07-21T00:45:20;11.77;;;9.57;;
5491;SDS011;2768;53.540;10.224;2022-07-21T00:51:17;10.27;;;9.33;;
5491;SDS011;2768;53.540;10.224;2022-07-21T00:57:12;10.70;;;8.87;;
5491;SDS011;2768;53.540;10.224;2022-07-21T01:03:11;11.10;;;9.30;;
5491;SDS011;2768;53.540;10.224;2022-07-21T01:09:08;10.53;;;9.07;;
5491;SDS011;2768;53.540;10.224;2022-07-21T01:15:05;11.37;;;8.47;;
5491;SDS011;2768;53.540;10.224;2022-07-21T01:21:03;14.47;;;9.60;;
5491;SDS011;2768;53.540;10.224;2022-07-21T01:27:09;11.00;;;9.10;;
5491;SDS011;2768;53.540;10.224;2022-07-21T01:33:10;10.80;;;8.97;;
5491;SDS011;2768;53.540;10.224;2022-07-21T01:39:04;9.63;;;8.63;;
5491;SDS011;2768;53.540;10.224;2022-07-21T01:45:17;11.07;;;9.53;;
5491;SDS011;2768;53.540;10.224;2022-07-21T01:51:10;10.10;;;9.10;;
5491;SDS011;2768;53.540;10.224;2022-07-21T01:57:04;12.53;;;9.43;;
5491;SDS011;2768;53.540;10.224;2022-07-21T02:02:57;11.67;;;9.47;;
5491;SDS011;2768;53.540;10.224;2022-07-21T02:08:53;15.63;;;9.17;;
5491;SDS011;2768;53.540;10.224;2022-07-21T02:14:50;13.90;;;9.30;;
5491;SDS011;2768;53.540;10.224;2022-07-21T02:20:43;21.10;;;9.13;;
5491;SDS011;2768;53.540;10.224;2022-07-21T02:26:38;15.20;;;10.07;;
5491;SDS011;2768;53.540;10.224;2022-07-21T02:32:33;12.13;;;8.50;;
5491;SDS011;2768;53.540;10.224;2022-07-21T02:38:26;11.87;;;8.50;;
5491;SDS011;2768;53.540;10.224;2022-07-21T02:44:19;9.87;;;8.87;;
5491;SDS011;2768;53.540;10.224;2022-07-21T02:56:22;15.90;;;9.23;;
5491;SDS011;2768;53.540;10.224;2022-07-21T03:02:15;12.87;;;9.30;;
5491;SDS011;2768;53.540;10.224;2022-07-21T03:08:10;10.47;;;9.10;;
5491;SDS011;2768;53.540;10.224;2022-07-21T03:14:03;13.00;;;9.90;;
5491;SDS011;2768;53.540;10.224;2022-07-21T03:19:59;14.43;;;10.80;;
5491;SDS011;2768;53.540;10.224;2022-07-21T03:26:03;16.83;;;10.70;;
5491;SDS011;2768;53.540;10.224;2022-07-21T03:31:56;17.20;;;10.60;;
5491;SDS011;2768;53.540;10.224;2022-07-21T03:37:51;18.93;;;11.47;;
5491;SDS011;2768;53.540;10.224;2022-07-21T03:43:47;15.30;;;11.33;;
5491;SDS011;2768;53.540;10.224;2022-07-21T03:49:40;13.67;;;10.03;;
5491;SDS011;2768;53.540;10.224;2022-07-21T03:55:33;14.70;;;10.83;;
5491;SDS011;2768;53.540;10.224;2022-07-21T04:01:30;12.43;;;9.50;;
5491;SDS011;2768;53.540;10.224;2022-07-21T04:07:23;13.37;;;8.37;;
5491;SDS011;2768;53.540;10.224;2022-07-21T04:13:19;12.67;;;7.50;;
5491;SDS011;2768;53.540;10.224;2022-07-21T04:19:18;12.43;;;7.00;;
5491;SDS011;2768;53.540;10.224;2022-07-21T04:25:11;11.90;;;6.40;;
5491;SDS011;2768;53.540;10.224;2022-07-21T04:31:05;15.43;;;5.80;;
5491;SDS011;2768;53.540;10.224;2022-07-21T04:37:00;9.73;;;5.70;;
5491;SDS011;2768;53.540;10.224;2022-07-21T04:42:53;7.27;;;5.20;;
5491;SDS011;2768;53.540;10.224;2022-07-21T04:48:46;9.63;;;4.83;;
5491;SDS011;2768;53.540;10.224;2022-07-21T04:54:41;14.93;;;4.50;;
5491;SDS011;2768;53.540;10.224;2022-07-21T05:00:34;7.53;;;4.23;;
5491;SDS011;2768;53.540;10.224;2022-07-21T05:06:28;8.57;;;3.90;;
5491;SDS011;2768;53.540;10.224;2022-07-21T05:12:25;12.10;;;4.60;;
5491;SDS011;2768;53.540;10.224;2022-07-21T05:18:18;8.47;;;3.93;;
5491;SDS011;2768;53.540;10.224;2022-07-21T05:24:11;8.70;;;3.50;;
5491;SDS011;2768;53.540;10.224;2022-07-21T05:30:08;8.50;;;3.23;;
5491;SDS011;2768;53.540;10.224;2022-07-21T05:36:05;6.47;;;3.60;;
5491;SDS011;2768;53.540;10.224;2022-07-21T05:42:00;6.33;;;3.70;;
5491;SDS011;2768;53.540;10.224;2022-07-21T05:47:56;6.63;;;3.37;;
5491;SDS011;2768;53.540;10.224;2022-07-21T05:53:49;7.00;;;3.53;;
5491;SDS011;2768;53.540;10.224;2022-07-21T05:59:45;8.57;;;4.40;;
5491;SDS011;2768;53.540;10.224;2022-07-21T06:05:39;7.33;;;4.23;;
5491;SDS011;2768;53.540;10.224;2022-07-21T06:11:32;8.13;;;3.63;;
5491;SDS011;2768;53.540;10.224;2022-07-21T06:17:28;12.20;;;4.80;;
5491;SDS011;2768;53.540;10.224;2022-07-21T06:23:25;7.93;;;4.10;;
5491;SDS011;2768;53.540;10.224;2022-07-21T06:29:19;7.63;;;3.70;;
5491;SDS011;2768;53.540;10.224;2022-07-21T06:35:12;8.77;;;3.70;;
5491;SDS011;2768;53.540;10.224;2022-07-21T06:41:06;9.53;;;4.50;;
5491;SDS011;2768;53.540;10.224;2022-07-21T06:47:03;6.67;;;4.17;;
5491;SDS011;2768;53.540;10.224;2022-07-21T06:52:56;10.93;;;5.07;;
5491;SDS011;2768;53.540;10.224;2022-07-21T06:58:51;7.80;;;5.13;;
5491;SDS011;2768;53.540;10.224;2022-07-21T07:04:44;10.47;;;5.13;;
5491;SDS011;2768;53.540;10.224;2022-07-21T07:10:38;8.20;;;4.97;;
5491;SDS011;2768;53.540;10.224;2022-07-21T07:16:37;8.67;;;5.23;;
5491;SDS011;2768;53.540;10.224;2022-07-21T07:22:33;12.83;;;5.37;;
5491;SDS011;2768;53.540;10.224;2022-07-21T07:28:28;10.43;;;6.70;;
5491;SDS011;2768;53.540;10.224;2022-07-21T07:34:23;10.20;;;5.57;;
5491;SDS011;2768;53.540;10.224;2022-07-21T07:40:17;8.30;;;5.97;;
5491;SDS011;2768;53.540;10.224;2022-07-21T07:46:11;12.03;;;6.07;;
5491;SDS011;2768;53.540;10.224;2022-07-21T07:52:09;15.53;;;7.63;;
5491;SDS011;2768;53.540;10.224;2022-07-21T07:58:06;10.47;;;7.40;;
5491;SDS011;2768;53.540;10.224;2022-07-21T08:04:05;12.00;;;8.17;;
5491;SDS011;2768;53.540;10.224;2022-07-21T08:10:07;17.33;;;10.37;;
5491;SDS011;2768;53.540;10.224;2022-07-21T08:16:23;14.10;;;10.20;;
5491;SDS011;2768;53.540;10.224;2022-07-21T08:22:16;15.70;;;9.80;;
5491;SDS011;2768;53.540;10.224;2022-07-21T08:28:18;18.57;;;12.10;;
5491;SDS011;2768;53.540;10.224;2022-07-21T08:34:15;19.03;;;11.60;;
5491;SDS011;2768;53.540;10.224;2022-07-21T08:40:09;20.30;;;12.47;;
5491;SDS011;2768;53.540;10.224;2022-07-21T08:46:06;24.87;;;14.87;;
5491;SDS011;2768;53.540;10.224;2022-07-21T08:52:00;19.60;;;14.70;;
5491;SDS011;2768;53.540;10.224;2022-07-21T08:57:54;21.83;;;15.80;;
5491;SDS011;2768;53.540;10.224;2022-07-21T09:03:49;21.60;;;16.20;;
5491;SDS011;2768;53.540;10.224;2022-07-21T09:09:43;23.80;;;16.83;;
5491;SDS011;2768;53.540;10.224;2022-07-21T09:15:49;22.30;;;14.80;;
5491;SDS011;2768;53.540;10.224;2022-07-21T09:21:44;23.90;;;18.10;;
5491;SDS011;2768;53.540;10.224;2022-07-21T09:27:38;27.20;;;20.53;;
5491;SDS011;2768;53.540;10.224;2022-07-21T09:33:34;22.70;;;19.63;;
5491;SDS011;2768;53.540;10.224;2022-07-21T09:45:43;28.87;;;25.83;;
5491;SDS011;2768;53.540;10.224;2022-07-21T09:51:37;25.90;;;23.13;;
5491;SDS011;2768;53.540;10.224;2022-07-21T09:57:34;28.27;;;24.13;;
5491;SDS011;2768;53.540;10.224;2022-07-21T10:03:30;26.50;;;22.57;;
5491;SDS011;2768;53.540;10.224;2022-07-21T10:09:23;23.50;;;20.03;;
5491;SDS011;2768;53.540;10.224;2022-07-21T10:15:18;22.10;;;18.27;;
5491;SDS011;2768;53.540;10.224;2022-07-21T10:21:16;20.43;;;17.87;;
5491;SDS011;2768;53.540;10.224;2022-07-21T10:27:18;23.60;;;19.10;;
5491;SDS011;2768;53.540;10.224;2022-07-21T10:39:49;20.13;;;18.00;;
5491;SDS011;2768;53.540;10.224;2022-07-21T10:45:42;20.77;;;18.67;;
5491;SDS011;2768;53.540;10.224;2022-07-21T10:51:45;22.23;;;19.90;;
5491;SDS011;2768;53.540;10.224;2022-07-21T10:57:38;20.30;;;18.30;;
5491;SDS011;2768;53.540;10.224;2022-07-21T11:03:40;20.10;;;16.33;;
5491;SDS011;2768;53.540;10.224;2022-07-21T11:09:41;16.70;;;12.83;;
5491;SDS011;2768;53.540;10.224;2022-07-21T11:16:06;15.20;;;12.70;;
5491;SDS011;2768;53.540;10.224;2022-07-21T11:22:00;12.90;;;11.60;;
5491;SDS011;2768;53.540;10.224;2022-07-21T11:27:57;11.80;;;9.90;;
5491;SDS011;2768;53.540;10.224;2022-07-21T11:33:50;11.67;;;10.63;;
5491;SDS011;2768;53.540;10.224;2022-07-21T11:39:46;12.43;;;11.23;;
5491;SDS011;2768;53.540;10.224;2022-07-21T11:45:50;10.93;;;9.80;;
5491;SDS011;2768;53.540;10.224;2022-07-21T11:51:48;9.93;;;8.90;;
5491;SDS011;2768;53.540;10.224;2022-07-21T11:57:43;10.33;;;9.03;;
5491;SDS011;2768;53.540;10.224;2022-07-21T12:03:50;9.53;;;8.17;;
5491;SDS011;2768;53.540;10.224;2022-07-21T12:09:52;7.13;;;6.20;;
5491;SDS011;2768;53.540;10.224;2022-07-21T12:15:49;7.07;;;6.47;;
5491;SDS011;2768;53.540;10.224;2022-07-21T12:21:47;6.63;;;5.70;;
5491;SDS011;2768;53.540;10.224;2022-07-21T12:27:43;6.27;;;5.67;;
5491;SDS011;2768;53.540;10.224;2022-07-21T12:33:44;6.73;;;6.10;;
5491;SDS011;2768;53.540;10.224;2022-07-21T12:40:02;7.40;;;6.60;;
5491;SDS011;2768;53.540;10.224;2022-07-21T12:45:58;6.70;;;6.10;;
5491;SDS011;2768;53.540;10.224;2022-07-21T12:52:01;6.70;;;6.10;;
5491;SDS011;2768;53.540;10.224;2022-07-21T12:58:00;5.70;;;5.20;;
5491;SDS011;2768;53.540;10.224;2022-07-21T13:03:54;5.87;;;5.37;;
5491;SDS011;2768;53.540;10.224;2022-07-21T13:09:47;5.73;;;5.10;;
5491;SDS011;2768;53.540;10.224;2022-07-21T13:15:44;5.40;;;4.90;;
5491;SDS011;2768;53.540;10.224;2022-07-21T13:21:45;5.37;;;4.87;;
5491;SDS011;2768;53.540;10.224;2022-07-21T13:27:38;5.20;;;4.80;;
5491;SDS011;2768;53.540;10.224;2022-07-21T13:33:39;4.77;;;4.37;;
5491;SDS011;2768;53.540;10.224;2022-07-21T13:39:35;4.93;;;4.37;;
5491;SDS011;2768;53.540;10.224;2022-07-21T13:45:51;5.23;;;4.77;;
5491;SDS011;2768;53.540;10.224;2022-07-21T13:51:46;4.67;;;4.27;;
5491;SDS011;2768;53.540;10.224;2022-07-21T13:57:41;5.17;;;4.70;;
5491;SDS011;2768;53.540;10.224;2022-07-21T14:03:36;4.73;;;4.33;;
5491;SDS011;2768;53.540;10.224;2022-07-21T14:09:34;4.90;;;4.50;;
5491;SDS011;2768;53.540;10.224;2022-07-21T14:15:27;5.63;;;4.27;;
5491;SDS011;2768;53.540;10.224;2022-07-21T14:21:20;4.23;;;3.93;;
5491;SDS011;2768;53.540;10.224;2022-07-21T14:27:17;4.60;;;4.20;;
5491;SDS011;2768;53.540;10.224;2022-07-21T14:33:14;3.23;;;3.03;;
5491;SDS011;2768;53.540;10.224;2022-07-21T14:39:09;2.47;;;2.37;;
5491;SDS011;2768;53.540;10.224;2022-07-21T14:45:04;3.10;;;2.90;;
5491;SDS011;2768;53.540;10.224;2022-07-21T14:51:14;4.53;;;2.50;;
5491;SDS011;2768;53.540;10.224;2022-07-21T14:57:07;3.53;;;2.70;;
5491;SDS011;2768;53.540;10.224;2022-07-21T15:03:09;2.70;;;2.50;;
5491;SDS011;2768;53.540;10.224;2022-07-21T15:09:02;3.20;;;3.00;;
5491;SDS011;2768;53.540;10.224;2022-07-21T15:14:56;2.90;;;2.70;;
5491;SDS011;2768;53.540;10.224;2022-07-21T15:20:50;3.30;;;3.07;;
5491;SDS011;2768;53.540;10.224;2022-07-21T15:26:44;7.87;;;3.33;;
5491;SDS011;2768;53.540;10.224;2022-07-21T15:32:44;8.70;;;5.67;;
5491;SDS011;2768;53.540;10.224;2022-07-21T15:38:39;6.60;;;5.50;;
5491;SDS011;2768;53.540;10.224;2022-07-21T15:44:37;5.57;;;5.07;;
5491;SDS011;2768;53.540;10.224;2022-07-21T15:50:35;5.70;;;4.97;;
5491;SDS011;2768;53.540;10.224;2022-07-21T15:56:35;5.93;;;5.43;;
5491;SDS011;2768;53.540;10.224;2022-07-21T16:02:31;7.03;;;5.83;;
5491;SDS011;2768;53.540;10.224;2022-07-21T16:08:27;6.63;;;6.00;;
5491;SDS011;2768;53.540;10.224;2022-07-21T16:14:24;7.43;;;6.63;;
5491;SDS011;2768;53.540;10.224;2022-07-21T16:20:18;7.77;;;7.07;;
5491;SDS011;2768;53.540;10.224;2022-07-21T16:26:13;9.50;;;7.90;;
5491;SDS011;2768;53.540;10.224;2022-07-21T16:32:08;9.00;;;8.20;;
5491;SDS011;2768;53.540;10.224;2022-07-21T16:38:01;9.90;;;8.90;;
5491;SDS011;2768;53.540;10.224;2022-07-21T16:43:56;10.17;;;8.90;;
5491;SDS011;2768;53.540;10.224;2022-07-21T16:49:57;10.03;;;9.03;;
5491;SDS011;2768;53.540;10.224;2022-07-21T16:55:52;9.67;;;8.87;;
5491;SDS011;2768;53.540;10.224;2022-07-21T17:01:52;8.60;;;7.90;;
5491;SDS011;2768;53.540;10.224;2022-07-21T17:07:47;10.00;;;9.00;;
5491;SDS011;2768;53.540;10.224;2022-07-21T17:13:41;11.17;;;10.20;;
5491;SDS011;2768;53.540;10.224;2022-07-21T17:19:35;11.70;;;10.60;;
5491;SDS011;2768;53.540;10.224;2022-07-21T17:25:29;12.60;;;11.40;;
5491;SDS011;2768;53.540;10.224;2022-07-21T17:31:22;18.30;;;16.53;;
5491;SDS011;2768;53.540;10.224;2022-07-21T17:37:24;14.67;;;13.37;;
5491;SDS011;2768;53.540;10.224;2022-07-21T17:43:19;15.23;;;13.87;;
5491;SDS011;2768;53.540;10.224;2022-07-21T17:49:19;16.27;;;14.77;;
5491;SDS011;2768;53.540;10.224;2022-07-21T17:55:15;15.90;;;14.40;;
5491;SDS011;2768;53.540;10.224;2022-07-21T18:07:37;17.57;;;16.00;;
5491;SDS011;2768;53.540;10.224;2022-07-21T18:13:33;17.60;;;15.90;;
5491;SDS011;2768;53.540;10.224;2022-07-21T18:19:28;16.87;;;15.33;;
5491;SDS011;2768;53.540;10.224;2022-07-21T18:25:23;16.63;;;15.07;;
5491;SDS011;2768;53.540;10.224;2022-07-21T18:31:26;16.67;;;15.17;;
5491;SDS011;2768;53.540;10.224;2022-07-21T18:37:20;15.33;;;14.03;;
5491;SDS011;2768;53.540;10.224;2022-07-21T18:43:13;8.97;;;8.27;;
5491;SDS011;2768;53.540;10.224;2022-07-21T18:49:06;8.90;;;7.10;;
5491;SDS011;2768;53.540;10.224;2022-07-21T18:55:04;8.30;;;7.47;;
5491;SDS011;2768;53.540;10.224;2022-07-21T19:00:58;8.37;;;7.67;;
5491;SDS011;2768;53.540;10.224;2022-07-21T19:06:54;8.07;;;7.40;;
5491;SDS011;2768;53.540;10.224;2022-07-21T19:13:08;7.83;;;7.13;;
5491;SDS011;2768;53.540;10.224;2022-07-21T19:19:10;8.63;;;7.83;;
5491;SDS011;2768;53.540;10.224;2022-07-21T19:25:07;11.10;;;8.30;;
5491;SDS011;2768;53.540;10.224;2022-07-21T19:31:02;9.03;;;8.10;;
5491;SDS011;2768;53.540;10.224;2022-07-21T19:36:58;9.47;;;7.40;;
5491;SDS011;2768;53.540;10.224;2022-07-21T19:42:54;9.30;;;8.57;;
5491;SDS011;2768;53.540;10.224;2022-07-21T19:48:49;9.00;;;8.20;;
5491;SDS011;2768;53.540;10.224;2022-07-21T19:54:42;8.60;;;7.80;;
5491;SDS011;2768;53.540;10.224;2022-07-21T20:00:36;7.57;;;6.77;;
5491;SDS011;2768;53.540;10.224;2022-07-21T20:06:31;7.80;;;7.20;;
5491;SDS011;2768;53.540;10.224;2022-07-21T20:12:25;7.30;;;6.70;;
5491;SDS011;2768;53.540;10.224;2022-07-21T20:18:18;8.30;;;6.93;;
5491;SDS011;2768;53.540;10.224;2022-07-21T20:24:14;7.50;;;6.90;;
5491;SDS011;2768;53.540;10.224;2022-07-21T20:30:10;6.43;;;5.93;;
5491;SDS011;2768;53.540;10.224;2022-07-21T20:36:04;7.90;;;7.23;;
5491;SDS011;2768;53.540;10.224;2022-07-21T20:41:59;7.13;;;6.53;;
5491;SDS011;2768;53.540;10.224;2022-07-21T20:47:52;7.53;;;6.93;;
5491;SDS011;2768;53.540;10.224;2022-07-21T20:53:45;7.80;;;7.10;;
5491;SDS011;2768;53.540;10.224;2022-07-21T20:59:39;7.30;;;6.80;;
5491;SDS011;2768;53.540;10.224;2022-07-21T21:05:32;7.87;;;7.10;;
5491;SDS011;2768;53.540;10.224;2022-07-21T21:11:27;9.80;;;8.90;;
5491;SDS011;2768;53.540;10.224;2022-07-21T21:17:29;9.47;;;8.67;;
5491;SDS011;2768;53.540;10.224;2022-07-21T21:23:32;9.57;;;8.67;;
5491;SDS011;2768;53.540;10.224;2022-07-21T21:29:32;9.73;;;8.70;;
5491;SDS011;2768;53.540;10.224;2022-07-21T21:35:29;10.30;;;8.63;;
5491;SDS011;2768;53.540;10.224;2022-07-21T21:41:22;11.03;;;9.37;;
5491;SDS011;2768;53.540;10.224;2022-07-21T21:47:16;9.93;;;9.03;;
5491;SDS011;2768;53.540;10.224;2022-07-21T21:53:13;10.00;;;9.10;;
5491;SDS011;2768;53.540;10.224;2022-07-21T21:59:08;9.23;;;8.53;;
5491;SDS011;2768;53.540;10.224;2022-07-21T22:05:02;10.53;;;9.33;;
5491;SDS011;2768;53.540;10.224;2022-07-21T22:10:56;10.27;;;9.37;;
5491;SDS011;2768;53.540;10.224;2022-07-21T22:16:50;11.80;;;10.17;;
5491;SDS011;2768;53.540;10.224;2022-07-21T22:22:44;11.60;;;10.40;;
5491;SDS011;2768;53.540;10.224;2022-07-21T22:28:44;13.57;;;9.70;;
5491;SDS011;2768;53.540;10.224;2022-07-21T22:34:37;11.40;;;10.27;;
5491;SDS011;2768;53.540;10.224;2022-07-21T22:40:32;11.00;;;10.00;;
5491;SDS011;2768;53.540;10.224;2022-07-21T22:46:27;11.27;;;10.27;;
5491;SDS011;2768;53.540;10.224;2022-07-21T22:52:21;10.93;;;9.83;;
5491;SDS011;2768;53.540;10.224;2022-07-21T22:58:20;11.10;;;9.17;;
5491;SDS011;2768;53.540;10.224;2022-07-21T23:04:19;11.20;;;10.23;;
5491;SDS011;2768;53.540;10.224;2022-07-21T23:10:12;11.03;;;10.13;;
5491;SDS011;2768;53.540;10.224;2022-07-21T23:16:06;11.23;;;10.13;;
5491;SDS011;2768;53.540;10.224;2022-07-21T23:22:00;13.50;;;12.10;;
5491;SDS011;2768;53.540;10.224;2022-07-21T23:27:53;15.17;;;12.30;;
5491;SDS011;2768;53.540;10.224;2022-07-21T23:33:49;16.10;;;12.33;;
5491;SDS011;2768;53.540;10.224;2022-07-21T23:39:45;13.77;;;12.37;;
5491;SDS011;2768;53.540;10.224;2022-07-21T23:45:49;15.00;;;13.23;;
5491;SDS011;2768;53.540;10.224;2022-07-21T23:51:42;18.10;;;14.73;;
5491;SDS011;2768;53.540;10.224;2022-07-21T23:57:37;15.43;;;13.83;;
